Whale Point, California Weather observations

Data are for observation ending at time listed.
 Day   Time    Ave.   Ave.  Ave.  Vector   Max.   Stn.    Total    Solar   Ave.  
  of    of     Air    Rel.  Wind   Wind    Wind   Baro.  Precip.   Rad.    Soil  
Year   Day     Temp.  Hum.  Speed  Dir.    Gust   Pres.                    Temp. 
2017   (PST)    F      %     mph   deg.    mph     mb.     in.     W/m2     F   
------------------------------------------------------------------------------
 146    0:00   51.0    95    1.1   254      2.9   991.2    0.00       0    65.1
 146    0:10   51.1    95    1.1   238      3.0   991.2    0.00       0    65.0
 146    0:20   50.8    95    2.4   231      5.7   991.2    0.01       0    65.0
 146    0:30   50.3    95    1.7   196      3.6   991.5    0.03       0    64.9
 146    0:40   50.1    95    0.5   219      2.3   991.5    0.01       0    64.9
 146    0:50   50.2    96    2.1   205      3.9   991.5    0.00       0    64.8
 146    1:00   50.1    96    1.9   202      4.5   991.5    0.01       0    64.8
 146    1:10   49.9    96    1.2   167      3.4   991.5    0.00       0    64.8
 146    1:20   49.8    96    2.0   168      5.5   991.5    0.01       0    64.7
 146    1:30   49.8    96    1.5   179      4.7   991.5    0.00       0    64.6
 146    1:40   49.7    96    1.1   195      4.9   991.9    0.00       0    64.6
 146    1:50   49.7    96    1.2   202      4.4   991.9    0.00       0    64.5
 146    2:00   49.7    96    1.2   226      2.8   991.5    0.01       0    64.5
 146    2:10   49.7    96    1.3   196      4.2   991.5    0.01       0    64.4
 146    2:20   49.6    96    1.2    31      3.6   991.5    0.01       0    64.4
 146    2:30   49.4    96    2.4    46      6.3   991.5    0.00       0    64.3
 146    2:40   49.5    96    2.8    84      6.1   991.5    0.00       0    64.3
 146    2:50   49.9    94    2.7   118      5.0   991.5    0.00       0    64.2
 146    3:00   50.1    92    2.7    77      5.4   991.9    0.00       0    64.2
 146    3:10   50.0    92    2.7    67      4.4   991.9    0.00       0    64.1
 146    3:20   50.0    92    3.7    52      6.4   991.9    0.00       0    64.1
 146    3:30   49.8    93    5.5    35      6.8   991.9    0.00       0    64.0
 146    3:40   49.8    93    3.7    66      5.8   991.9    0.00       0    64.0
 146    3:50   49.9    92    4.6    43      6.1   991.9    0.00       0    63.9
 146    4:00   49.9    92    4.8    44      6.1   991.9    0.00       0    63.9
 146    4:10   49.9    91    5.4    42      6.9   991.9    0.00       0    63.8
 146    4:20   50.1    91    4.9    50      6.5   991.9    0.00       0    63.8
 146    4:30   50.3    89    4.3    52      6.4   991.9    0.00       0    63.7
 146    4:40   50.3    89    4.0    53      5.3   991.9    0.00       0    63.6
 146    4:50   50.4    89    2.4    65      4.7   991.9    0.00       1    63.6
 146    5:00   50.7    88    2.1    66      3.7   991.9    0.00       2    63.5
 146    5:10   50.9    87    1.5    75      3.4   992.2    0.00       5    63.5
 146    5:20   51.2    86    1.4   112      3.5   992.2    0.00      10    63.4
 146    5:30   51.4    85    1.5   116      3.2   992.2    0.00      16    63.3
 146    5:40   51.4    85    0.6   180      2.6   992.6    0.00      18    63.3
 146    5:50   51.2    87    1.1   239      3.7   992.6    0.00      28    63.2
 146    6:00   50.7    90    1.2    20      2.6   992.9    0.00      40    63.2
 146    6:10   50.4    92    3.2    22      5.6   992.9    0.00      69    63.1
 146    6:20   50.3    92    4.1    42      6.4   992.9    0.00      82    63.1
 146    6:30   50.6    92    3.5    43      5.4   992.9    0.00      96    63.0
 146    6:40   51.2    90    1.3    27      5.6   992.9    0.00     113    63.0
 146    6:50   51.9    90    0.9   202      2.2   993.2    0.00      78    62.9
 146    7:00   51.5    90    0.6   205      1.5   993.2    0.00      78    62.9
 146    7:10   51.7    90    0.3   349      2.0   993.2    0.00     157    62.9
 146    7:20   52.2    91    0.8   331      2.6   993.2    0.00     218    62.8
 146    7:30   52.6    90    1.1   252      3.1   993.6    0.00     222    62.8
 146    7:40   52.7    90    1.9   219      3.7   993.6    0.00     277    62.8
 146    7:50   52.9    89    1.4   221      3.2   993.6    0.00     334    62.7
 146    8:00   53.4    89    2.3   204      3.6   993.9    0.00     355    62.7
 146    8:10   53.4    90    2.6   208      3.8   993.9    0.00     293    62.7
 146    8:20   53.2    89    2.7   215      3.7   994.2    0.00     449    62.7
 146    8:30   53.0    90    2.0   214      3.1   994.2    0.00     503    62.7
 146    8:40   53.6    89    3.1   219      4.7   994.2    0.00     557    62.7
 146    8:50   53.3    90    3.5   213      5.0   994.2    0.00     334    62.7
 146    9:00   52.8    91    3.6   210      5.5   994.6    0.00     339    62.7
 146    9:10   52.6    92    3.7   218      5.9   994.6    0.00     428    62.8
 146    9:20   53.0    92    3.1   219      5.6   994.6    0.00     407    62.8
 146    9:30   53.3    92    2.5   235      4.9   994.6    0.00     505    62.8
 146    9:40   53.6    91    2.4   223      5.0   994.6    0.00     702    62.9
 146    9:50   54.9    87    3.0   215      6.1   994.6    0.00     698    62.9
 146   10:00   55.1    86    3.9   220      5.9   994.6    0.00     615    63.0
 146   10:10   54.9    88    3.6   226      5.9   994.9    0.00     475    63.1
 146   10:20   54.4    88    3.3   230      5.0   994.9    0.00     420    63.2
 146   10:30   53.8    89    2.3   237      4.1   994.9    0.00     429    63.2
 146   10:40   54.1    88    2.8   237      4.3   994.9    0.00     441    63.3
 146   10:50   53.9    86    2.5   239      4.5   994.9    0.00     413    63.4
 146   11:00   54.4    85    2.7   249      5.0   994.9    0.00     400    63.5
 146   11:10   54.5    84    3.1   236      5.6   994.9    0.00     448    63.6
 146   11:20   54.8    84    3.1   232      5.1   994.9    0.00     464    63.7
 146   11:30   55.4    82    3.4   229      5.0   995.3    0.00     491    63.8
 146   11:40   55.4    81    3.2   229      5.1   995.3    0.00     519    63.8
 146   11:50   55.5    80    3.5   235      5.6   995.3    0.00     553    63.9
 146   12:00   55.7    80    3.6   234      6.5   995.3    0.00     533    64.0
 146   12:10   56.0    80    3.4   244      5.6   995.6    0.00     543    64.1
 146   12:20   57.1    78    3.2   232      5.3   995.6    0.00     605    64.2
 146   12:30   57.8    76    3.3   226      5.6   995.6    0.00     697    64.3
 146   12:40   57.4    76    3.8   233      6.0   995.6    0.00     725    64.4
 146   12:50   58.7    75    3.6   230      5.9   995.3    0.00     725    64.5
 146   13:00   58.4    74    3.5   226      5.7   995.3    0.00     682    64.6
 146   13:10   58.9    74    4.2   223      7.0   995.3    0.00     727    64.7
 146   13:20   59.9    73    4.0   221      6.8   995.3    0.00     754    64.8
 146   13:30   60.0    72    4.2   228      6.9   995.3    0.00     802    64.9
 146   13:40   59.5    72    4.1   229      7.5   995.3    0.00     808    65.0
 146   13:50   59.6    73    4.2   217      7.2   995.3    0.00     779    65.1
 146   14:00   60.4    72    4.6   234      7.9   995.3    0.00     886    65.3
 146   14:10   59.8    73    5.2   239      8.6   995.6    0.00     772    65.4
 146   14:20   59.5    73    5.2   230      8.5   995.6    0.00     793    65.5
 146   14:30   58.7    74    5.0   235      7.7   995.6    0.00     789    65.7
 146   14:40   59.5    72    4.2   231      7.7   995.6    0.00     611    65.8
 146   14:50   59.3    73    4.9   222      8.7   995.3    0.00     745    66.0
 146   15:00   59.2    73    5.2   232      8.1   995.3    0.00     732    66.2
 146   15:10   59.0    72    5.4   224      9.3   995.3    0.00     790    66.3
 146   15:20   58.8    73    5.2   229      8.1   995.3    0.00     681    66.5
 146   15:30   59.4    73    5.7   233      8.2   995.3    0.00     756    66.7
 146   15:40   60.7    73    5.7   232      8.8   995.3    0.00     883    66.8
 146   15:50   60.8    72    6.3   230      9.8   995.3    0.00     914    67.0
 146   16:00   60.7    72    6.2   228      9.1   995.3    0.00     828    67.1
 146   16:10   59.6    74    4.9   227      8.6   995.3    0.00     553    67.3
 146   16:20   60.6    71    3.8   237      7.4   995.3    0.00     474    67.4
 146   16:30   61.1    70    3.7   248      7.8   995.3    0.00     444    67.6
 146   16:40   59.7    72    3.2   265      7.5   995.3    0.00     417    67.8
 146   16:50   58.5    74    3.3   289      7.3   995.3    0.00     198    67.9
 146   17:00   58.1    76    4.5   280     10.2   995.3    0.00     146    68.1
 146   17:10   58.7    76    4.8   270      8.0   995.3    0.00     193    68.3
 146   17:20   58.5    76    4.3   298      7.8   995.3    0.00     309    68.4
 146   17:30   56.9    79    4.1   278      8.4   995.3    0.00     246    68.5
 146   17:40   56.8    80    2.7   289      8.1   995.3    0.00     297    68.7
 146   17:50   57.5    78    2.7   289      5.5   995.3    0.00     254    68.8
 146   18:00   58.0    77    2.8   283      5.8   995.3    0.00     216    68.8
 146   18:10   58.3    76    2.0   279      5.1   995.3    0.00     179    68.9
 146   18:20   57.6    76    2.6   231      5.8   995.3    0.00     143    69.0
 146   18:30   57.3    76    1.5   259      5.4   995.3    0.00      76    69.0
 146   18:40   55.9    78    1.2   274      4.3   995.3    0.00      44    69.1
 146   18:50   54.6    81    0.8   268      4.1   995.3    0.00      42    69.2
 146   19:00   54.2    81    1.2   295      3.3   995.3    0.00      31    69.2
 146   19:10   53.4    82    0.8   321      2.7   995.3    0.00      10    69.2
 146   19:20   53.0    83    0.1   336      1.3   995.3    0.00       4    69.2
 146   19:30   52.9    84    1.3   123      3.7   995.3    0.00       1    69.2
 146   19:40   52.6    85    1.8   129      2.9   995.3    0.00       0    69.2
 146   19:50   52.6    85    0.1    74      1.3   995.3    0.00       0    69.1
 146   20:00   52.6    85    0.0     0      0.0   995.6    0.00       0    69.1
 146   20:10   52.5    85    0.5    39      1.9   995.6    0.00       0    69.0
 146   20:20   52.5    85    0.2    76      1.4   995.6    0.00       0    68.9
 146   20:30   52.1    86    3.8    34      5.5   995.6    0.00       0    68.9
 146   20:40   52.0    87    3.9    40      5.1   995.9    0.00       0    68.8
 146   20:50   52.1    87    3.9    50      4.9   995.9    0.00       0    68.7
 146   21:00   51.7    87    2.7    50      4.5   995.9    0.00       0    68.6
 146   21:10   51.0    88    3.9    46      6.1   995.9    0.00       0    68.5
 146   21:20   51.7    87    2.5    69      5.0   995.9    0.00       0    68.4
 146   21:30   52.2    84    3.4    58      7.2   995.9    0.00       0    68.3
 146   21:40   52.6    82    2.6    55      6.3   996.3    0.00       0    68.2
 146   21:50   52.4    81    3.2    52      5.8   996.3    0.00       0    68.1
 146   22:00   52.2    81    2.5    81      5.1   996.3    0.00       0    68.0
 146   22:10   52.2    80    1.1    84      3.2   996.3    0.00       0    67.9
 146   22:20   52.1    80    1.0    68      2.6   996.3    0.00       0    67.8
 146   22:30   52.0    81    0.4    98      2.0   996.3    0.00       0    67.7
 146   22:40   51.8    81    1.5    70      3.8   996.3    0.00       0    67.5
 146   22:50   51.4    82    2.1    73      3.7   996.3    0.00       0    67.4
 146   23:00   51.4    82    2.2    76      4.2   996.3    0.00       0    67.3
 146   23:10   51.8    81    1.4    82      2.5   996.3    0.00       0    67.2
 146   23:20   51.4    81    1.4    88      3.3   996.3    0.00       0    67.1
 146   23:30   50.9    82    2.5    76      4.8   996.3    0.00       0    67.0

Return to Whale Point graphs page.


Western Regional Climate Center,wrcc@dri.edu